Spearwood Jandakot Aerodrome, Australia
Current Conditions -  °F | °C
As of 9:30 PM on Monday 24 Nov 2014 (Local Time) from YPJT Reporting Station
Clear Clear  
Wind Chill: 63°   Ceiling: Unl
Heat Index: 63°   Visibility: 6mi
Dew Point: 52°   Wind: 7mph
Humidity: 68%   Direction: 180°S
Pressure: 30.09"   Gusts: NA
Location:  32.08°S, 115.87°E
Report Text: YPJT 241330Z AUTO 18006KT 9999 // NCD 17/11 Q1019
Loading
Personal Weather Stations






























Interactive Weather Map New forecast layout! Learn more

10-Day Weather Forecast

Advertisements
Track Severe Weather on mobile